Accueil
METAR-TAF:

METAR-TAF

Aéroports :

Saint-Moritz, Suisse

Aéroport de Samedan-Engadin

latitude: 46-32-03N, longitude: 9-53-03E, altitude: 1707 m

Observation

Le bulletin a été fait il y a 10 minutes, à 22:50 UTC
Vent 2 kt de sud
Température 1°C
Humidité 93%
Pression 1027 hPa
Visibilité 10 km ou plus
pas de nuages en-dessous de 1500 mètres et pas de cumulonimbus.

METAR: LSZS 202250Z AUTO 19002KT CAVOK 01/00 Q1027

Heure: 01:00 (23:00 UTC)

Prévision

Le bulletin a été fait il y a 8 heures et 35 minutes, à 14:25 UTC
Prévision valable du 20 à 15 UTC au 20 à 24 UTC
Vent 12 kt de nord-ouest
Visibilité 10 km ou plus
Nuages épars à une hauteur de 5000 ft
Evoluant progressivement
du 20 à 16 UTC au 20 à 19 UTC
Vent 3 kt de direction variable
Visibilité 10 km ou plus
pas de nuages en-dessous de 1500 mètres et pas de cumulonimbus.

TAF: LSZS 201425Z 2015/2024 31012KT 9999 SCT050 TX13/2015Z BECMG 2016/2019 VRB03KT CAVOK

Observations et prévisions météorologiques de plus de 4000 aéroports (messages METAR et TAF).

Les stations disponibles sont représentées par des disques jaunes et rouges sur la carte.

Passer la souris dessus pour voir le nom de la station.

Cliquer dessus pour voir les observations et prévisions météorologiques.

Pour changer de carte: cliquez sur les boutons verts avec une croix noire pour zoomer, sur le bouton vert avec un tiret pour effectuer un zoom arrière, ou sur les flèches vertes pour les cartes adjacentes.


METAR-TAF: